createdAt,value
2018-11-22T00:00:38.903Z,0.19
2018-11-22T00:01:38.927Z,0.26
2018-11-22T00:02:39.104Z,0.21
2018-11-22T00:03:39.151Z,0.25
2018-11-22T00:04:38.967Z,0.21
2018-11-22T00:05:39.066Z,0.22
2018-11-22T00:06:39.119Z,0.19
2018-11-22T00:07:38.887Z,0.22
2018-11-22T00:08:40.319Z,0.25
2018-11-22T00:09:38.966Z,0.27
2018-11-22T00:10:38.893Z,0.2
2018-11-22T00:11:38.907Z,0.24
2018-11-22T00:12:38.914Z,0.23
2018-11-22T00:13:39.326Z,0.23
2018-11-22T00:14:38.857Z,0.24
2018-11-22T00:15:38.898Z,0.24
2018-11-22T00:16:38.883Z,0.2
2018-11-22T00:17:38.905Z,0.23
2018-11-22T00:18:39.107Z,0.19
2018-11-22T00:19:38.989Z,0.21
2018-11-22T00:20:38.911Z,0.2
2018-11-22T00:21:38.861Z,0.2
2018-11-22T00:22:38.895Z,0.23
2018-11-22T00:23:38.861Z,0.26
2018-11-22T00:24:39.197Z,0.23
2018-11-22T00:25:38.937Z,0.21
2018-11-22T00:26:38.885Z,0.23
2018-11-22T00:27:38.882Z,0.19
2018-11-22T00:28:38.826Z,0.19
2018-11-22T00:29:38.912Z,0.23
2018-11-22T00:30:38.933Z,0.27
2018-11-22T00:31:39.021Z,0.25
2018-11-22T00:32:38.880Z,0.28
2018-11-22T00:33:39.059Z,0.27
2018-11-22T00:34:38.906Z,0.26
2018-11-22T00:35:39.110Z,0.24
2018-11-22T00:36:39.012Z,0.22
2018-11-22T00:37:38.895Z,0.26
2018-11-22T00:38:38.903Z,0.26
2018-11-22T00:39:39.169Z,0.29
2018-11-22T00:40:39.076Z,0.3
2018-11-22T00:41:39.116Z,0.29
2018-11-22T00:42:39.067Z,0.27
2018-11-22T00:43:39.058Z,0.24
2018-11-22T00:44:38.831Z,0.3
2018-11-22T00:45:39.312Z,0.32
2018-11-22T00:46:38.969Z,0.33
2018-11-22T00:47:38.827Z,0.31
2018-11-22T00:48:39.116Z,0.28
2018-11-22T00:49:38.861Z,0.29
2018-11-22T00:50:39.320Z,0.3
2018-11-22T00:51:39.573Z,0.24
2018-11-22T00:52:39.178Z,0.23
2018-11-22T00:53:39.067Z,0.24
2018-11-22T00:54:38.855Z,0.32
2018-11-22T00:55:39.049Z,0.22
2018-11-22T00:56:38.813Z,0.21
2018-11-22T00:57:39.172Z,0.13
2018-11-22T00:58:38.977Z,0.16
2018-11-22T00:59:38.895Z,0.17
2018-11-22T01:00:39.102Z,0.16
2018-11-22T01:01:38.941Z,0.12
2018-11-22T01:02:38.828Z,0.12
2018-11-22T01:03:38.892Z,0.09
2018-11-22T01:04:38.917Z,0.08
2018-11-22T01:05:38.889Z,0.05
2018-11-22T01:06:38.882Z,0.09
2018-11-22T01:07:38.837Z,0.02
2018-11-22T01:08:38.864Z,0.04
2018-11-22T01:09:39.072Z,0.02
2018-11-22T01:10:38.771Z,0.06
2018-11-22T01:11:39.066Z,0.02
2018-11-22T01:12:39.163Z,0
2018-11-22T01:13:39.159Z,0.02
2018-11-22T01:14:39.013Z,-0.03
2018-11-22T01:15:39.119Z,-0.05
2018-11-22T01:16:38.935Z,-0.07
2018-11-22T01:17:38.810Z,-0.12
2018-11-22T01:18:38.773Z,-0.1
2018-11-22T01:19:38.844Z,-0.06
2018-11-22T01:20:38.748Z,-0.11
2018-11-22T01:21:38.943Z,-0.1
2018-11-22T01:22:39.051Z,-0.04
2018-11-22T01:23:38.962Z,-0.06
2018-11-22T01:24:38.803Z,-0.02
2018-11-22T01:25:39.088Z,-0.02
2018-11-22T01:26:39.109Z,-0.03
2018-11-22T01:27:39.202Z,-0.04
2018-11-22T01:28:38.836Z,-0.06
2018-11-22T01:29:38.949Z,-0.01
2018-11-22T01:30:38.767Z,-0.01
2018-11-22T01:31:38.815Z,0.04
2018-11-22T01:32:39.094Z,0.06
2018-11-22T01:33:39.139Z,0.04
2018-11-22T01:34:39.055Z,0.03
2018-11-22T01:35:38.817Z,0.03
2018-11-22T01:36:39.049Z,0.06
2018-11-22T01:37:39.002Z,0.11
2018-11-22T01:38:38.771Z,0.01
2018-11-22T01:39:39.175Z,0.01
2018-11-22T01:40:39.025Z,0.02
2018-11-22T01:41:38.781Z,0.06
2018-11-22T01:42:39.188Z,0.02
2018-11-22T01:43:38.768Z,0.01
2018-11-22T01:44:38.776Z,0.02
2018-11-22T01:45:38.876Z,-0.01
2018-11-22T01:46:38.756Z,0.04
2018-11-22T01:47:38.763Z,0.03
2018-11-22T01:48:38.911Z,0.06
2018-11-22T01:49:38.741Z,0.1
2018-11-22T01:50:38.792Z,0.07
2018-11-22T01:51:38.867Z,0.1
2018-11-22T01:52:38.836Z,0.09
2018-11-22T01:53:38.793Z,0.08
2018-11-22T01:54:38.872Z,0.07
2018-11-22T01:55:38.850Z,0.06
2018-11-22T01:56:38.753Z,0.05
2018-11-22T01:57:38.834Z,0.11
2018-11-22T01:58:38.768Z,0.06
2018-11-22T01:59:38.800Z,0.07
2018-11-22T02:00:38.766Z,0.1
2018-11-22T02:01:38.798Z,0.07
2018-11-22T02:02:38.840Z,0.06
2018-11-22T02:03:39.154Z,0.11
2018-11-22T02:04:39.031Z,0.11
2018-11-22T02:05:39.097Z,0.05
2018-11-22T02:06:38.745Z,0.08
2018-11-22T02:07:38.971Z,0.02
2018-11-22T02:08:38.860Z,0.05
2018-11-22T02:09:38.716Z,0.05
2018-11-22T02:10:38.779Z,0.08
2018-11-22T02:11:38.727Z,0.12
2018-11-22T02:12:39.131Z,0.1
2018-11-22T02:13:38.713Z,0.09
2018-11-22T02:14:38.726Z,0.1
2018-11-22T02:15:39.033Z,0.09
2018-11-22T02:16:38.737Z,0.06
2018-11-22T02:17:38.876Z,0.06
2018-11-22T02:18:39.195Z,0.03
2018-11-22T02:19:38.708Z,0.09
2018-11-22T02:20:38.786Z,0.09
2018-11-22T02:21:38.738Z,0.06
2018-11-22T02:22:39.105Z,0.09
2018-11-22T02:23:38.881Z,0.1
2018-11-22T02:24:39.075Z,0.13
2018-11-22T02:25:38.693Z,0.07
2018-11-22T02:26:38.685Z,0.06
2018-11-22T02:27:38.891Z,0.03
2018-11-22T02:28:38.754Z,0.02
2018-11-22T02:29:38.792Z,0.01
2018-11-22T02:30:38.968Z,0.04
2018-11-22T02:31:39.062Z,0.03
2018-11-22T02:32:38.678Z,0.08
2018-11-22T02:33:38.723Z,0.11
2018-11-22T02:34:39.203Z,0.09
2018-11-22T02:35:39.411Z,0.11
2018-11-22T02:36:38.739Z,0.12
2018-11-22T02:37:38.681Z,0.1
2018-11-22T02:38:38.824Z,0.02
2018-11-22T02:39:38.869Z,0.05
2018-11-22T02:40:38.770Z,0.08
2018-11-22T02:41:38.809Z,0.04
2018-11-22T02:42:38.816Z,0.04
2018-11-22T02:43:38.709Z,0.06
2018-11-22T02:44:38.716Z,0.06
2018-11-22T02:45:38.741Z,0.06
2018-11-22T02:46:38.714Z,0.03
2018-11-22T02:47:38.851Z,0.03
2018-11-22T02:48:38.657Z,0.03
2018-11-22T02:49:39.087Z,0.04
2018-11-22T02:50:38.742Z,0.07
2018-11-22T02:51:39.073Z,0.06
2018-11-22T02:52:38.736Z,0.09
2018-11-22T02:53:38.811Z,0.09
2018-11-22T02:54:38.835Z,0.08
2018-11-22T02:55:38.761Z,0.02
2018-11-22T02:56:38.713Z,0.04
2018-11-22T02:57:38.821Z,0.05
2018-11-22T02:58:38.777Z,0.02
2018-11-22T02:59:38.664Z,0.08
2018-11-22T03:00:38.913Z,0.02
2018-11-22T03:01:39.129Z,0.02
2018-11-22T03:02:38.726Z,0.01
2018-11-22T03:03:38.899Z,0.05
2018-11-22T03:04:39.094Z,0.06
2018-11-22T03:05:38.634Z,0.06
2018-11-22T03:06:38.884Z,0.03
2018-11-22T03:07:38.660Z,0.04
2018-11-22T03:08:38.783Z,0.06
2018-11-22T03:09:38.736Z,0.08
2018-11-22T03:10:38.768Z,0
2018-11-22T03:11:38.698Z,0.04
2018-11-22T03:12:39.252Z,0.01
2018-11-22T03:13:38.697Z,0.04
2018-11-22T03:14:38.705Z,0.05
2018-11-22T03:15:38.668Z,0.04
2018-11-22T03:16:38.697Z,0.07
2018-11-22T03:17:38.649Z,0.02
2018-11-22T03:18:38.647Z,0.03
2018-11-22T03:19:39.011Z,0.02
2018-11-22T03:20:38.669Z,0
2018-11-22T03:21:38.698Z,0.02
2018-11-22T03:22:38.638Z,0.04
2018-11-22T03:23:38.675Z,0.02
2018-11-22T03:24:38.653Z,0.01
2018-11-22T03:25:38.634Z,0.07
2018-11-22T03:26:38.609Z,0.06
2018-11-22T03:27:38.617Z,0.05
2018-11-22T03:28:38.655Z,0.06
2018-11-22T03:29:38.667Z,0.09
2018-11-22T03:30:38.681Z,0.04
2018-11-22T03:31:38.907Z,0.08
2018-11-22T03:32:38.645Z,0.01
2018-11-22T03:33:38.765Z,0.04
2018-11-22T03:34:38.633Z,0.05
2018-11-22T03:35:38.654Z,0.04
2018-11-22T03:36:38.814Z,0.02
2018-11-22T03:37:38.656Z,0
2018-11-22T03:38:38.694Z,0.06
2018-11-22T03:39:38.824Z,0.03
2018-11-22T03:40:38.627Z,0.02
2018-11-22T03:41:38.710Z,0.01
2018-11-22T03:42:38.661Z,0.07
2018-11-22T03:43:38.670Z,0.04
2018-11-22T03:44:38.715Z,0.07
2018-11-22T03:45:38.715Z,0.08
2018-11-22T03:46:38.637Z,0.06
2018-11-22T03:47:38.768Z,0.03
2018-11-22T03:48:39.216Z,0
2018-11-22T03:49:39.192Z,0.01
2018-11-22T03:50:38.905Z,0.03
2018-11-22T03:51:38.630Z,-0.02
2018-11-22T03:52:38.627Z,-0.02
2018-11-22T03:53:38.695Z,-0.02
2018-11-22T03:54:39.012Z,0.02
2018-11-22T03:55:38.589Z,-0.01
2018-11-22T03:56:38.808Z,-0.02
2018-11-22T03:57:38.659Z,0
2018-11-22T03:58:38.726Z,-0.03
2018-11-22T03:59:38.719Z,-0.05
2018-11-22T04:00:38.771Z,-0.03
2018-11-22T04:01:38.597Z,-0.04
2018-11-22T04:02:38.784Z,0
2018-11-22T04:03:38.701Z,0.02
2018-11-22T04:04:38.989Z,0.02
2018-11-22T04:05:38.586Z,0.03
2018-11-22T04:06:38.608Z,0.05
2018-11-22T04:07:38.589Z,0.03
2018-11-22T04:08:38.841Z,0.02
2018-11-22T04:09:38.594Z,0.04
2018-11-22T04:10:38.773Z,0.03
2018-11-22T04:11:38.764Z,-0.02
2018-11-22T04:12:39.401Z,0.03
2018-11-22T04:13:38.757Z,-0.02
2018-11-22T04:14:38.631Z,-0.07
2018-11-22T04:15:38.583Z,-0.08
2018-11-22T04:16:38.718Z,-0.09
2018-11-22T04:17:38.531Z,-0.08
2018-11-22T04:18:38.711Z,-0.08
2018-11-22T04:19:38.729Z,-0.1
2018-11-22T04:20:38.587Z,-0.05
2018-11-22T04:21:38.930Z,-0.06
2018-11-22T04:22:38.653Z,-0.1
2018-11-22T04:23:38.610Z,-0.09
2018-11-22T04:24:38.651Z,-0.05
2018-11-22T04:25:38.552Z,-0.09
2018-11-22T04:26:39.200Z,-0.03
2018-11-22T04:27:38.561Z,-0.07
2018-11-22T04:28:38.575Z,-0.11
2018-11-22T04:29:38.925Z,-0.09
2018-11-22T04:30:38.779Z,-0.09
2018-11-22T04:31:38.530Z,-0.09
2018-11-22T04:32:38.643Z,-0.08
2018-11-22T04:33:38.582Z,-0.11
2018-11-22T04:34:38.595Z,-0.16
2018-11-22T04:35:38.561Z,-0.15
2018-11-22T04:36:38.567Z,-0.12
2018-11-22T04:37:38.517Z,-0.17
2018-11-22T04:38:38.581Z,-0.16
2018-11-22T04:39:38.603Z,-0.12
2018-11-22T04:40:39.025Z,-0.12
2018-11-22T04:41:38.630Z,-0.14
2018-11-22T04:42:38.521Z,-0.11
2018-11-22T04:43:38.545Z,-0.14
2018-11-22T04:44:38.554Z,-0.18
2018-11-22T04:45:39.068Z,-0.17
2018-11-22T04:46:38.601Z,-0.15
2018-11-22T04:47:38.538Z,-0.15
2018-11-22T04:48:38.507Z,-0.14
2018-11-22T04:49:38.685Z,-0.18
2018-11-22T04:50:38.543Z,-0.2
2018-11-22T04:51:38.632Z,-0.17
2018-11-22T04:52:38.542Z,-0.15
2018-11-22T04:53:38.590Z,-0.12
2018-11-22T04:54:38.490Z,-0.11
2018-11-22T04:55:38.506Z,-0.09
2018-11-22T04:56:38.500Z,-0.16
2018-11-22T04:57:38.521Z,-0.19
2018-11-22T04:58:38.532Z,-0.15
2018-11-22T04:59:38.487Z,-0.14
2018-11-22T05:00:38.719Z,-0.09
2018-11-22T05:01:38.507Z,-0.1
2018-11-22T05:02:38.557Z,-0.11
2018-11-22T05:03:39.184Z,-0.11
2018-11-22T05:04:38.749Z,-0.12
2018-11-22T05:05:38.598Z,-0.1
2018-11-22T05:06:38.744Z,-0.1
2018-11-22T05:07:38.457Z,-0.08
2018-11-22T05:08:38.552Z,-0.1
2018-11-22T05:09:38.623Z,-0.09
2018-11-22T05:10:38.670Z,-0.14
2018-11-22T05:11:38.506Z,-0.12
2018-11-22T05:12:38.628Z,-0.08
2018-11-22T05:13:38.635Z,-0.16
2018-11-22T05:14:38.482Z,-0.18
2018-11-22T05:15:39.316Z,-0.19
2018-11-22T05:16:38.690Z,-0.14
2018-11-22T05:17:38.459Z,-0.17
2018-11-22T05:18:38.584Z,-0.18
2018-11-22T05:19:38.576Z,-0.15
2018-11-22T05:20:38.772Z,-0.14
2018-11-22T05:21:38.476Z,-0.12
2018-11-22T05:22:38.679Z,-0.09
2018-11-22T05:23:38.597Z,-0.14
2018-11-22T05:24:38.492Z,-0.13
2018-11-22T05:25:38.490Z,-0.15
2018-11-22T05:26:38.634Z,-0.21
2018-11-22T05:27:38.472Z,-0.18
2018-11-22T05:28:38.480Z,-0.14
2018-11-22T05:29:38.499Z,-0.13
2018-11-22T05:30:39.732Z,-0.11
2018-11-22T05:31:38.526Z,-0.14
2018-11-22T05:32:38.579Z,-0.16
2018-11-22T05:33:38.565Z,-0.16
2018-11-22T05:34:38.486Z,-0.19
2018-11-22T05:35:38.540Z,-0.15
2018-11-22T05:36:38.670Z,-0.21
2018-11-22T05:37:38.617Z,-0.17
2018-11-22T05:38:38.568Z,-0.24
2018-11-22T05:39:38.815Z,-0.2
2018-11-22T05:40:38.542Z,-0.21
2018-11-22T05:41:43.962Z,-0.2
2018-11-22T05:42:38.445Z,-0.21
2018-11-22T05:43:38.486Z,-0.2
2018-11-22T05:44:38.540Z,-0.2
2018-11-22T05:45:38.690Z,-0.2
2018-11-22T05:46:38.659Z,-0.22
2018-11-22T05:47:38.463Z,-0.21
2018-11-22T05:48:38.582Z,-0.27
2018-11-22T05:49:38.560Z,-0.24
2018-11-22T05:50:38.801Z,-0.25
2018-11-22T05:51:38.450Z,-0.24
2018-11-22T05:52:38.442Z,-0.23
2018-11-22T05:53:38.587Z,-0.24
2018-11-22T05:54:38.572Z,-0.25
2018-11-22T05:55:38.784Z,-0.24
2018-11-22T05:56:38.578Z,-0.25
2018-11-22T05:57:39.056Z,-0.26
2018-11-22T05:58:38.521Z,-0.23
2018-11-22T05:59:38.648Z,-0.32
2018-11-22T06:00:38.621Z,-0.25
2018-11-22T06:01:38.493Z,-0.3
2018-11-22T06:02:38.407Z,-0.32
2018-11-22T06:03:38.527Z,-0.32
2018-11-22T06:04:38.505Z,-0.33
2018-11-22T06:05:38.549Z,-0.34
2018-11-22T06:06:38.477Z,-0.3
2018-11-22T06:07:38.569Z,-0.32
2018-11-22T06:08:38.829Z,-0.31
2018-11-22T06:09:38.419Z,-0.29
2018-11-22T06:10:38.598Z,-0.29
2018-11-22T06:11:38.469Z,-0.26
2018-11-22T06:12:38.497Z,-0.3
2018-11-22T06:13:38.410Z,-0.29
2018-11-22T06:14:38.373Z,-0.31
2018-11-22T06:15:38.474Z,-0.29
2018-11-22T06:16:38.474Z,-0.28
2018-11-22T06:17:38.394Z,-0.28
2018-11-22T06:18:38.452Z,-0.3
2018-11-22T06:19:38.394Z,-0.29
2018-11-22T06:20:38.395Z,-0.29
2018-11-22T06:21:38.386Z,-0.3
2018-11-22T06:22:38.569Z,-0.3
2018-11-22T06:23:38.400Z,-0.31
2018-11-22T06:24:38.367Z,-0.3
2018-11-22T06:25:38.379Z,-0.28
2018-11-22T06:26:38.444Z,-0.31
2018-11-22T06:27:38.642Z,-0.29
2018-11-22T06:28:38.398Z,-0.33
2018-11-22T06:29:38.440Z,-0.29
2018-11-22T06:30:38.773Z,-0.28
2018-11-22T06:31:38.382Z,-0.31
2018-11-22T06:32:38.362Z,-0.28
2018-11-22T06:33:38.370Z,-0.29
2018-11-22T06:34:38.510Z,-0.32
2018-11-22T06:35:38.379Z,-0.3
2018-11-22T06:36:38.379Z,-0.3
2018-11-22T06:37:38.689Z,-0.32
2018-11-22T06:38:38.401Z,-0.3
2018-11-22T06:39:38.510Z,-0.3
2018-11-22T06:40:38.651Z,-0.28
2018-11-22T06:41:38.540Z,-0.26
2018-11-22T06:42:38.430Z,-0.22
2018-11-22T06:43:38.574Z,-0.28
2018-11-22T06:44:38.434Z,-0.25
2018-11-22T06:45:38.571Z,-0.26
2018-11-22T06:46:38.355Z,-0.24
2018-11-22T06:47:38.428Z,-0.27
2018-11-22T06:48:38.521Z,-0.26
2018-11-22T06:49:38.405Z,-0.28
2018-11-22T06:50:38.550Z,-0.24
2018-11-22T06:51:38.389Z,-0.28
2018-11-22T06:52:38.600Z,-0.26
2018-11-22T06:53:38.372Z,-0.25
2018-11-22T06:54:38.516Z,-0.26
2018-11-22T06:55:38.382Z,-0.27
2018-11-22T06:56:38.492Z,-0.3
2018-11-22T06:57:38.416Z,-0.23
2018-11-22T06:58:38.384Z,-0.28
2018-11-22T06:59:38.430Z,-0.29
2018-11-22T07:00:38.463Z,-0.25
2018-11-22T07:01:38.424Z,-0.24
2018-11-22T07:02:38.557Z,-0.24
2018-11-22T07:03:38.840Z,-0.24
2018-11-22T07:04:38.468Z,-0.21
2018-11-22T07:05:38.414Z,-0.23
2018-11-22T07:06:38.517Z,-0.25
2018-11-22T07:07:38.462Z,-0.22
2018-11-22T07:08:38.406Z,-0.19
2018-11-22T07:09:38.432Z,-0.18
2018-11-22T07:10:38.749Z,-0.22
2018-11-22T07:11:38.450Z,-0.2
2018-11-22T07:12:38.544Z,-0.23
2018-11-22T07:13:38.516Z,-0.22
2018-11-22T07:14:39.118Z,-0.25
2018-11-22T07:15:38.341Z,-0.26
2018-11-22T07:16:38.451Z,-0.26
2018-11-22T07:17:38.419Z,-0.26
2018-11-22T07:18:38.766Z,-0.24
2018-11-22T07:19:38.421Z,-0.28
2018-11-22T07:20:38.617Z,-0.28
2018-11-22T07:21:38.418Z,-0.26
2018-11-22T07:22:38.357Z,-0.27
2018-11-22T07:23:38.339Z,-0.29
2018-11-22T07:24:38.368Z,-0.25
2018-11-22T07:25:38.304Z,-0.27
2018-11-22T07:26:38.520Z,-0.3
2018-11-22T07:27:38.524Z,-0.25
2018-11-22T07:28:38.323Z,-0.26
2018-11-22T07:29:38.324Z,-0.24
2018-11-22T07:30:42.680Z,-0.27
2018-11-22T07:31:38.273Z,-0.27
2018-11-22T07:32:38.596Z,-0.26
2018-11-22T07:33:38.840Z,-0.31
2018-11-22T07:34:38.603Z,-0.31
2018-11-22T07:35:38.428Z,-0.27
2018-11-22T07:36:38.452Z,-0.28
2018-11-22T07:37:38.848Z,-0.26
2018-11-22T07:38:38.347Z,-0.26
2018-11-22T07:39:38.469Z,-0.29
2018-11-22T07:40:38.403Z,-0.3
2018-11-22T07:41:38.322Z,-0.27
2018-11-22T07:42:38.582Z,-0.3
2018-11-22T07:43:38.834Z,-0.28
2018-11-22T07:44:38.389Z,-0.27
2018-11-22T07:45:38.273Z,-0.26
2018-11-22T07:46:38.272Z,-0.25
2018-11-22T07:47:38.324Z,-0.26
2018-11-22T07:48:38.286Z,-0.24
2018-11-22T07:49:38.292Z,-0.24
2018-11-22T07:50:38.248Z,-0.29
2018-11-22T07:51:38.238Z,-0.3
2018-11-22T07:52:38.257Z,-0.23
2018-11-22T07:53:38.253Z,-0.29
2018-11-22T07:54:38.288Z,-0.25
2018-11-22T07:55:38.251Z,-0.26
2018-11-22T07:56:38.264Z,-0.26
2018-11-22T07:57:38.265Z,-0.25
2018-11-22T07:58:38.437Z,-0.26
2018-11-22T07:59:38.552Z,-0.27
2018-11-22T08:00:38.260Z,-0.26
2018-11-22T08:01:38.299Z,-0.23
2018-11-22T08:02:38.246Z,-0.24
2018-11-22T08:03:38.248Z,-0.25
2018-11-22T08:04:38.258Z,-0.22
2018-11-22T08:05:38.272Z,-0.21
2018-11-22T08:06:38.308Z,-0.2
2018-11-22T08:07:38.418Z,-0.21
2018-11-22T08:08:38.287Z,-0.18
2018-11-22T08:09:38.358Z,-0.18
2018-11-22T08:10:38.289Z,-0.2
2018-11-22T08:11:38.333Z,-0.18
2018-11-22T08:12:38.784Z,-0.2
2018-11-22T08:13:38.305Z,-0.14
2018-11-22T08:14:38.580Z,-0.14
2018-11-22T08:15:39.120Z,-0.15
2018-11-22T08:16:38.423Z,-0.17
2018-11-22T08:17:38.314Z,-0.17
2018-11-22T08:18:38.281Z,-0.18
2018-11-22T08:19:38.223Z,-0.12
2018-11-22T08:20:38.242Z,-0.13
2018-11-22T08:21:38.551Z,-0.14
2018-11-22T08:22:38.366Z,-0.11
2018-11-22T08:23:38.236Z,-0.1
2018-11-22T08:24:38.442Z,-0.08
2018-11-22T08:25:38.329Z,-0.11
2018-11-22T08:26:39.055Z,-0.11
2018-11-22T08:27:38.318Z,-0.08
2018-11-22T08:28:38.308Z,-0.07
2018-11-22T08:29:38.331Z,-0.1
2018-11-22T08:30:38.331Z,-0.08
2018-11-22T08:31:38.330Z,-0.07
2018-11-22T08:32:38.235Z,-0.07
2018-11-22T08:33:38.300Z,-0.07
2018-11-22T08:34:38.828Z,-0.06
2018-11-22T08:35:38.341Z,-0.09
2018-11-22T08:36:38.262Z,-0.03
2018-11-22T08:37:38.212Z,-0.09
2018-11-22T08:38:38.289Z,-0.08
2018-11-22T08:39:38.207Z,-0.09
2018-11-22T08:40:38.214Z,-0.08
2018-11-22T08:41:38.287Z,-0.03
2018-11-22T08:42:38.490Z,-0.05
2018-11-22T08:43:38.236Z,-0.07
2018-11-22T08:44:38.389Z,-0.04
2018-11-22T08:45:38.268Z,-0.05
2018-11-22T08:46:38.189Z,-0.06
2018-11-22T08:47:38.380Z,-0.08
2018-11-22T08:48:38.300Z,-0.05
2018-11-22T08:49:38.343Z,-0.13
2018-11-22T08:50:38.271Z,-0.06
2018-11-22T08:51:38.208Z,-0.07
2018-11-22T08:52:38.374Z,-0.09
2018-11-22T08:53:38.231Z,-0.05
2018-11-22T08:54:38.344Z,-0.02
2018-11-22T08:55:38.268Z,-0.07
2018-11-22T08:56:38.389Z,-0.07
2018-11-22T08:57:38.303Z,-0.1
2018-11-22T08:58:38.358Z,-0.12
2018-11-22T08:59:38.483Z,-0.11
2018-11-22T09:00:38.365Z,-0.06
2018-11-22T09:01:38.532Z,-0.06
2018-11-22T09:02:45.397Z,-0.05
2018-11-22T09:03:38.307Z,-0.03
2018-11-22T09:04:38.265Z,-0.03
2018-11-22T09:05:38.218Z,0.02
2018-11-22T09:06:38.392Z,0.02
2018-11-22T09:07:38.391Z,-0.06
2018-11-22T09:08:38.501Z,0.01
2018-11-22T09:09:38.311Z,-0.02
2018-11-22T09:10:38.321Z,-0.05
2018-11-22T09:11:38.249Z,-0.03
2018-11-22T09:12:38.259Z,0.04
2018-11-22T09:13:38.367Z,0.04
2018-11-22T09:14:38.271Z,0.05
2018-11-22T09:15:38.251Z,0.02
2018-11-22T09:16:38.201Z,0.05
2018-11-22T09:17:38.190Z,0.06
2018-11-22T09:18:38.263Z,0.1
2018-11-22T09:19:38.345Z,0.07
2018-11-22T09:20:38.212Z,0.1
2018-11-22T09:21:38.193Z,0.12
2018-11-22T09:22:38.266Z,0.08
2018-11-22T09:23:38.816Z,0.08
2018-11-22T09:24:39.186Z,0.05
2018-11-22T09:25:38.160Z,0.1
2018-11-22T09:26:38.253Z,0.11
2018-11-22T09:27:38.225Z,0.19
2018-11-22T09:28:38.243Z,0.21
2018-11-22T09:29:39.876Z,0.17
2018-11-22T09:30:38.521Z,0.21
2018-11-22T09:31:38.190Z,0.2
2018-11-22T09:32:38.195Z,0.17
2018-11-22T09:33:38.204Z,0.18
2018-11-22T09:34:38.364Z,0.25
2018-11-22T09:35:38.175Z,0.18
2018-11-22T09:36:38.138Z,0.17
2018-11-22T09:37:38.236Z,0.2
2018-11-22T09:38:38.356Z,0.23
2018-11-22T09:39:38.158Z,0.18
2018-11-22T09:40:38.418Z,0.2
2018-11-22T09:41:38.210Z,0.1
2018-11-22T09:42:38.238Z,0.19
2018-11-22T09:43:38.291Z,0.16
2018-11-22T09:44:38.312Z,0.21
2018-11-22T09:45:38.374Z,0.21
2018-11-22T09:46:38.265Z,0.12
2018-11-22T09:47:38.314Z,0.1
2018-11-22T09:48:38.680Z,0.16
2018-11-22T09:49:38.128Z,0.18
2018-11-22T09:50:38.366Z,0.19
2018-11-22T09:51:38.340Z,0.27
2018-11-22T09:52:38.226Z,0.28
2018-11-22T09:53:38.313Z,0.3
2018-11-22T09:54:38.235Z,0.26
2018-11-22T09:55:38.238Z,0.32
2018-11-22T09:56:38.215Z,0.34
2018-11-22T09:57:38.143Z,0.3
2018-11-22T09:58:38.372Z,0.27
2018-11-22T09:59:38.229Z,0.29
2018-11-22T10:00:38.251Z,0.28
2018-11-22T10:01:38.120Z,0.24
2018-11-22T10:02:38.235Z,0.29
2018-11-22T10:03:38.097Z,0.28
2018-11-22T10:04:38.630Z,0.27
2018-11-22T10:05:38.410Z,0.33
2018-11-22T10:06:38.170Z,0.38
2018-11-22T10:07:38.162Z,0.33
2018-11-22T10:08:38.707Z,0.35
2018-11-22T10:09:38.305Z,0.33
2018-11-22T10:10:38.220Z,0.36
2018-11-22T10:11:38.121Z,0.34
2018-11-22T10:12:39.064Z,0.33
2018-11-22T10:13:38.170Z,0.35
2018-11-22T10:14:38.089Z,0.33
2018-11-22T10:15:38.180Z,0.35
2018-11-22T10:16:38.263Z,0.38
2018-11-22T10:17:38.338Z,0.38
2018-11-22T10:18:38.698Z,0.46
2018-11-22T10:19:38.210Z,0.42
2018-11-22T10:20:38.306Z,0.39
2018-11-22T10:21:38.178Z,0.38
2018-11-22T10:22:38.864Z,0.43
2018-11-22T10:23:38.419Z,0.47
2018-11-22T10:24:38.232Z,0.45
2018-11-22T10:25:38.239Z,0.4
2018-11-22T10:26:38.468Z,0.37
2018-11-22T10:27:38.070Z,0.43
2018-11-22T10:28:38.586Z,0.47
2018-11-22T10:29:38.199Z,0.5
2018-11-22T10:30:38.183Z,0.48
2018-11-22T10:31:38.633Z,0.51
2018-11-22T10:32:38.255Z,0.51
2018-11-22T10:33:38.068Z,0.49
2018-11-22T10:34:38.171Z,0.51
2018-11-22T10:35:38.062Z,0.52
2018-11-22T10:36:38.187Z,0.52
2018-11-22T10:37:38.412Z,0.47
2018-11-22T10:38:38.169Z,0.49
2018-11-22T10:39:38.104Z,0.54
2018-11-22T10:40:38.224Z,0.57
2018-11-22T10:41:38.596Z,0.6
2018-11-22T10:42:38.989Z,0.66
2018-11-22T10:43:38.174Z,0.7
2018-11-22T10:44:38.142Z,0.7
2018-11-22T10:45:38.158Z,0.64
2018-11-22T10:46:38.037Z,0.63
2018-11-22T10:47:38.116Z,0.62
2018-11-22T10:48:38.068Z,0.55
2018-11-22T10:49:38.126Z,0.63
2018-11-22T10:50:38.165Z,0.72
2018-11-22T10:51:38.025Z,0.67
2018-11-22T10:52:38.076Z,0.75
2018-11-22T10:53:38.035Z,0.79
2018-11-22T10:54:38.203Z,0.78
2018-11-22T10:55:38.221Z,0.76
2018-11-22T10:56:38.006Z,0.76
2018-11-22T10:57:38.084Z,0.76
2018-11-22T10:58:38.018Z,0.79
2018-11-22T10:59:38.081Z,0.81
2018-11-22T11:00:38.067Z,0.76
2018-11-22T11:01:38.163Z,0.73
2018-11-22T11:02:38.103Z,0.77
2018-11-22T11:03:38.076Z,0.74
2018-11-22T11:04:38.067Z,0.73
2018-11-22T11:05:38.290Z,0.68
2018-11-22T11:06:38.067Z,0.71
2018-11-22T11:07:38.063Z,0.69
2018-11-22T11:08:38.101Z,0.63
2018-11-22T11:09:38.049Z,0.68
2018-11-22T11:10:38.094Z,0.68
2018-11-22T11:11:38.145Z,0.69
2018-11-22T11:12:38.099Z,0.72
2018-11-22T11:13:38.142Z,0.76
2018-11-22T11:14:37.983Z,0.92
2018-11-22T11:15:38.016Z,0.93
2018-11-22T11:16:38.183Z,0.89
2018-11-22T11:17:38.366Z,1.02
2018-11-22T11:18:38.107Z,0.92
2018-11-22T11:19:38.137Z,1
2018-11-22T11:20:38.171Z,0.9
2018-11-22T11:21:38.232Z,0.94
2018-11-22T11:22:38.070Z,1.04
2018-11-22T11:23:38.414Z,1.04
2018-11-22T11:24:41.022Z,0.92
2018-11-22T11:25:38.134Z,0.91
2018-11-22T11:26:38.263Z,1.02
2018-11-22T11:27:38.164Z,1.02
2018-11-22T11:28:38.102Z,0.94
2018-11-22T11:29:38.368Z,0.94
2018-11-22T11:30:39.121Z,0.72
2018-11-22T11:31:38.081Z,0.68
2018-11-22T11:32:38.324Z,0.88
2018-11-22T11:33:38.029Z,0.85
2018-11-22T11:34:38.346Z,0.86
2018-11-22T11:35:38.056Z,0.94
2018-11-22T11:36:38.086Z,0.88
2018-11-22T11:37:38.144Z,0.91
2018-11-22T11:38:37.956Z,1
2018-11-22T11:39:38.176Z,0.84
2018-11-22T11:40:38.080Z,0.93
2018-11-22T11:41:38.353Z,0.9
2018-11-22T11:42:38.164Z,0.81
2018-11-22T11:43:38.174Z,0.76
2018-11-22T11:44:38.318Z,0.71
2018-11-22T11:45:38.057Z,0.83
2018-11-22T11:46:38.257Z,0.85
2018-11-22T11:47:38.115Z,0.92
2018-11-22T11:48:38.280Z,0.95
2018-11-22T11:49:38.092Z,0.93
2018-11-22T11:50:38.102Z,0.91
2018-11-22T11:51:38.125Z,0.84
2018-11-22T11:52:38.479Z,0.9
2018-11-22T11:53:42.061Z,0.9
2018-11-22T11:54:38.196Z,0.85
2018-11-22T11:55:38.089Z,0.84
2018-11-22T11:56:37.975Z,0.86
2018-11-22T11:57:38.105Z,0.93
2018-11-22T11:58:38.092Z,0.95
2018-11-22T11:59:38.277Z,0.95
2018-11-22T12:00:38.191Z,0.88
2018-11-22T12:01:38.025Z,0.75
2018-11-22T12:02:38.032Z,0.84
2018-11-22T12:03:38.174Z,0.83
2018-11-22T12:04:38.291Z,0.88
2018-11-22T12:05:38.178Z,0.81
2018-11-22T12:06:38.027Z,0.82
2018-11-22T12:07:38.191Z,0.78
2018-11-22T12:08:38.125Z,0.86
2018-11-22T12:09:38.052Z,0.92
2018-11-22T12:10:37.984Z,0.99
2018-11-22T12:11:38.291Z,1.03
2018-11-22T12:12:37.967Z,0.97
2018-11-22T12:13:38.588Z,1.07
2018-11-22T12:14:38.046Z,1.06
2018-11-22T12:15:38.049Z,1
2018-11-22T12:16:37.922Z,0.95
2018-11-22T12:17:38.090Z,0.94
2018-11-22T12:18:37.926Z,0.93
2018-11-22T12:19:37.899Z,1.03
2018-11-22T12:20:37.916Z,1.03
2018-11-22T12:21:38.025Z,1.04
2018-11-22T12:22:37.938Z,1.04
2018-11-22T12:23:37.952Z,1.03
2018-11-22T12:24:38.069Z,1.09
2018-11-22T12:25:37.960Z,1.12
2018-11-22T12:26:37.897Z,1.07
2018-11-22T12:27:38.204Z,1.07
2018-11-22T12:28:37.907Z,1.14
2018-11-22T12:29:37.915Z,1.1
2018-11-22T12:30:37.952Z,1
2018-11-22T12:31:37.943Z,1.04
2018-11-22T12:32:38.136Z,1.06
2018-11-22T12:33:38.044Z,1.01
2018-11-22T12:34:37.896Z,1.06
2018-11-22T12:35:38.038Z,1.04
2018-11-22T12:36:38.054Z,1.16
2018-11-22T12:37:43.577Z,1.08
2018-11-22T12:38:38.248Z,1.14
2018-11-22T12:39:38.069Z,0.97
2018-11-22T12:40:38.016Z,1.07
2018-11-22T12:41:37.946Z,1.13
2018-11-22T12:42:38.050Z,1.14
2018-11-22T12:43:37.953Z,1.14
2018-11-22T12:44:37.920Z,1.1
2018-11-22T12:45:38.073Z,1.01
2018-11-22T12:46:38.270Z,1.03
2018-11-22T12:47:38.189Z,1.03
2018-11-22T12:48:37.897Z,0.97
2018-11-22T12:49:37.919Z,1.03
2018-11-22T12:50:37.897Z,1.06
2018-11-22T12:51:37.991Z,1.03
2018-11-22T12:52:37.976Z,1.1
2018-11-22T12:53:38.377Z,1.04
2018-11-22T12:54:38.310Z,1.1
2018-11-22T12:55:37.867Z,1.12
2018-11-22T12:56:38.096Z,1.06
2018-11-22T12:57:38.004Z,1.11
2018-11-22T12:58:38.109Z,1.06
2018-11-22T12:59:38.078Z,1.11
2018-11-22T13:00:38.269Z,1.13
2018-11-22T13:01:37.907Z,1.19
2018-11-22T13:02:37.896Z,1.17
2018-11-22T13:03:38.057Z,1.15
2018-11-22T13:04:37.880Z,1.17
2018-11-22T13:05:37.899Z,1.2
2018-11-22T13:06:37.857Z,1.19
2018-11-22T13:07:38.225Z,1.15
2018-11-22T13:08:38.073Z,1.18
2018-11-22T13:09:37.883Z,1.18
2018-11-22T13:10:38.216Z,1.13
2018-11-22T13:11:37.930Z,1.18